Versailles, IN

1:42 PM EDT on September 16, 2014 (GMT -0400)
RAWS BIG OAKS IN US | Change Station
CLOSE
Current Station
Personal Weather Station
Location: Canaan, IN
Elevation: 899 ft
Nearby Weather Stations

Elev 899 ft 38.93 °N, 85.36 °W | Updated 55 minutes ago

Overcast
Overcast
60 °F
Feels Like 60 °F
N
6
Wind Variable Wind from NE
Gusts 12.0 mph

Today
High -- | Low -- °F
--% Chance of Precip.
Yesterday
High -- | Low -- °F
Precip. -- in
7:23 AM 7:47 PM
Last Quarter, 44% visible
Pressure 30.16 in
Visibility 9.0 miles
Clouds Overcast 2000 ft
Dew Point 52 °F
Humidity 76%
Rainfall 0.23 in
Snow Depth Not available.
UV 2 out of 12
Pollen 4.90 out of 12
Air Quality Not available.
Flu Activity Not available.
METAR KCVG 161652Z 36004KT 9SM OVC020 16/10 A3016

More Conditions Fewer Conditions

Pressure 30.16 in
Visibility 9.0 miles
Clouds Overcast 2000 ft
Dew Point 52 °F
Humidity 76%
Rainfall 0.23 in
Snow Depth Not available.
UV 2 out of 12
Pollen 4.90 out of 12
Air Quality Not available.
Flu Activity Not available.
METAR KCVG 161652Z 36004KT 9SM OVC020 16/10 A3016

More Conditions Fewer Conditions

10-Day Weather Forecast

Almanac

Astronomy

Sep. 16, 2014 Rise Set
Actual Time 7:23 AM EDT 7:47 PM EDT
Civil Twilight 6:56 AM EDT 8:14 PM EDT
Nautical Twilight 6:24 AM EDT 8:45 PM EDT
Astronomical Twilight 5:52 AM EDT 9:18 PM EDT
Moon 12:34 AM EDT 3:08 PM EDT
Length of Visible Light 13h 18m
Length of Day
12h 24m
Tomorrow will be 2m 31s shorter.
Last Quarter, 44% of the Moon is Illuminated
Today
Last Quarter
Sep 24
New
Oct 1
First Quarter
Oct 8
Full
Oct 15
Last Quarter

Today's Extremes

State Highs State Lows

Community

WunderPhotos

Upload Photos

1,753,843 photos uploaded!

Nearby

Snow Depth

Station Depth Elevation
No new snow has been reported.

Earthquake Activity

City Distance Mag. Time & Date
No recent earthquake activity has been reported nearby.
Minimum magnitude displayed is 2.5.

Coastal Water Temperatures

Place Temperature
No Stations Reporting

Nearby Weather Stations